NBL93 YMHB-YWLM
Flight info
| Callsign | NBL93 |
|---|---|
| Flight time | 1h 41m |
| Altitude | 35000 |
| Route | YMHB/30 N0455F350 LATUM2 LATUM H111 LT J22 NUNPA J163 CB W423 CULIN Y59 TESAT H252 EKIPU EKIPU2 YWLM/12 |
| Aircraft | B738/M-SDE2E3FGHIRWXY/LB1 |
Departure
| Time | 2026-04-22 02:19 |
|---|---|
| Airport | Hobart International Airport (YMHB) |
Arrival
| Time | 2026-04-22 04:01 |
|---|---|
| Airport | Newcastle Airport (YWLM) |
| Time | Latitude | Longitude | Altitude | Speed | Heading |
|---|---|---|---|---|---|
| 2026-04-22 02:15 | -42.83914 | 147.50974 | 21 ft | 0 kts | 133° |
| 2026-04-22 02:17 | -42.83915 | 147.50975 | 21 ft | 1 kts | 133° |
| 2026-04-22 02:17 | -42.83947 | 147.51039 | 21 ft | 14 kts | 103° |
| 2026-04-22 02:18 | -42.83873 | 147.51161 | 23 ft | 12 kts | 32° |
| 2026-04-22 02:18 | -42.83853 | 147.51196 | 21 ft | 8 kts | 62° |
| 2026-04-22 02:18 | -42.83811 | 147.51278 | 21 ft | 12 kts | 48° |
| 2026-04-22 02:18 | -42.83707 | 147.51293 | 21 ft | 38 kts | 327° |
| 2026-04-22 02:19 | -42.83328 | 147.50799 | 21 ft | 114 kts | 314° |
| 2026-04-22 02:19 | -42.82616 | 147.49820 | 204 ft | 166 kts | 316° |
| 2026-04-22 02:19 | -42.81783 | 147.48698 | 1113 ft | 171 kts | 315° |
| 2026-04-22 02:19 | -42.80966 | 147.47478 | 2031 ft | 178 kts | 311° |
| 2026-04-22 02:20 | -42.80142 | 147.46214 | 2948 ft | 175 kts | 316° |
| 2026-04-22 02:20 | -42.79310 | 147.45115 | 4077 ft | 156 kts | 313° |
| 2026-04-22 02:20 | -42.78493 | 147.44035 | 4688 ft | 176 kts | 312° |
| 2026-04-22 02:20 | -42.77552 | 147.42782 | 4922 ft | 203 kts | 312° |
| 2026-04-22 02:21 | -42.76493 | 147.41364 | 5248 ft | 221 kts | 312° |
| 2026-04-22 02:21 | -42.75354 | 147.39832 | 5617 ft | 243 kts | 312° |
| 2026-04-22 02:21 | -42.74546 | 147.38741 | 6006 ft | 251 kts | 312° |
| 2026-04-22 02:21 | -42.73292 | 147.37043 | 6766 ft | 258 kts | 313° |
| 2026-04-22 02:22 | -42.72009 | 147.35304 | 7512 ft | 262 kts | 313° |
| 2026-04-22 02:22 | -42.70711 | 147.33542 | 8343 ft | 265 kts | 313° |
| 2026-04-22 02:22 | -42.69392 | 147.31743 | 9113 ft | 271 kts | 313° |
| 2026-04-22 02:22 | -42.68052 | 147.29916 | 9924 ft | 274 kts | 313° |
| 2026-04-22 02:23 | -42.66685 | 147.28050 | 10494 ft | 288 kts | 314° |
| 2026-04-22 02:23 | -42.65211 | 147.26038 | 10680 ft | 312 kts | 314° |
| 2026-04-22 02:23 | -42.63618 | 147.23865 | 10873 ft | 334 kts | 314° |
| 2026-04-22 02:23 | -42.61942 | 147.21583 | 11335 ft | 346 kts | 315° |
| 2026-04-22 02:24 | -42.60010 | 147.19643 | 12077 ft | 350 kts | 334° |
| 2026-04-22 02:24 | -42.57659 | 147.18802 | 12864 ft | 353 kts | 354° |
| 2026-04-22 02:24 | -42.55200 | 147.19075 | 13702 ft | 358 kts | 11° |
| 2026-04-22 02:24 | -42.52896 | 147.20424 | 14402 ft | 367 kts | 29° |
| 2026-04-22 02:25 | -42.50765 | 147.22372 | 15015 ft | 372 kts | 31° |
| 2026-04-22 02:25 | -42.48626 | 147.24388 | 15613 ft | 377 kts | 31° |
| 2026-04-22 02:25 | -42.46471 | 147.26441 | 16231 ft | 380 kts | 32° |
| 2026-04-22 02:25 | -42.44328 | 147.28487 | 16844 ft | 383 kts | 32° |
| 2026-04-22 02:26 | -42.42140 | 147.30566 | 17500 ft | 385 kts | 31° |
| 2026-04-22 02:26 | -42.39937 | 147.32653 | 18109 ft | 388 kts | 31° |
| 2026-04-22 02:26 | -42.37707 | 147.34754 | 18666 ft | 392 kts | 31° |
| 2026-04-22 02:26 | -42.35458 | 147.36866 | 19193 ft | 394 kts | 32° |
| 2026-04-22 02:27 | -42.33064 | 147.38635 | 19683 ft | 392 kts | 14° |
| 2026-04-22 02:27 | -42.30403 | 147.39262 | 20249 ft | 390 kts | 0° |
| 2026-04-22 02:27 | -42.27705 | 147.38930 | 20701 ft | 391 kts | 348° |
| 2026-04-22 02:27 | -42.25031 | 147.38222 | 21288 ft | 391 kts | 348° |
| 2026-04-22 02:28 | -42.22350 | 147.37511 | 21765 ft | 394 kts | 348° |
| 2026-04-22 02:28 | -42.19641 | 147.36830 | 22228 ft | 398 kts | 349° |
| 2026-04-22 02:28 | -42.16911 | 147.36166 | 22621 ft | 403 kts | 349° |
| 2026-04-22 02:28 | -42.14149 | 147.35503 | 23149 ft | 404 kts | 349° |
| 2026-04-22 02:29 | -42.11377 | 147.34840 | 23598 ft | 406 kts | 349° |
| 2026-04-22 02:29 | -42.08573 | 147.34172 | 23968 ft | 410 kts | 349° |
| 2026-04-22 02:29 | -42.05746 | 147.33497 | 24315 ft | 413 kts | 349° |
| 2026-04-22 02:29 | -42.02954 | 147.32830 | 24761 ft | 414 kts | 349° |
| 2026-04-22 02:30 | -42.00070 | 147.32139 | 25035 ft | 419 kts | 349° |
| 2026-04-22 02:30 | -41.97212 | 147.31455 | 25256 ft | 425 kts | 349° |
| 2026-04-22 02:30 | -41.94285 | 147.30756 | 25614 ft | 427 kts | 349° |
| 2026-04-22 02:30 | -41.91364 | 147.30061 | 26010 ft | 428 kts | 349° |
| 2026-04-22 02:31 | -41.88422 | 147.29361 | 26350 ft | 430 kts | 349° |
| 2026-04-22 02:31 | -41.85455 | 147.28656 | 26589 ft | 435 kts | 349° |
| 2026-04-22 02:31 | -41.82470 | 147.27945 | 27027 ft | 434 kts | 349° |
| 2026-04-22 02:31 | -41.79496 | 147.27236 | 27374 ft | 436 kts | 349° |
| 2026-04-22 02:32 | -41.76491 | 147.26522 | 27648 ft | 439 kts | 349° |
| 2026-04-22 02:32 | -41.73470 | 147.25807 | 27950 ft | 441 kts | 349° |
| 2026-04-22 02:32 | -41.70446 | 147.25091 | 28292 ft | 443 kts | 349° |
| 2026-04-22 02:32 | -41.67406 | 147.24371 | 28588 ft | 445 kts | 349° |
| 2026-04-22 02:33 | -41.64353 | 147.23649 | 28805 ft | 448 kts | 349° |
| 2026-04-22 02:33 | -41.61277 | 147.22923 | 29142 ft | 449 kts | 349° |
| 2026-04-22 02:33 | -41.58182 | 147.22256 | 29368 ft | 452 kts | 353° |
| 2026-04-22 02:33 | -41.55027 | 147.22241 | 29613 ft | 457 kts | 4° |
| 2026-04-22 02:34 | -41.51888 | 147.22917 | 30047 ft | 456 kts | 12° |
| 2026-04-22 02:34 | -41.48872 | 147.24238 | 30506 ft | 456 kts | 21° |
| 2026-04-22 02:34 | -41.45948 | 147.25899 | 30817 ft | 456 kts | 21° |
| 2026-04-22 02:34 | -41.43043 | 147.27592 | 31062 ft | 457 kts | 22° |
| 2026-04-22 02:35 | -41.40122 | 147.29294 | 31344 ft | 457 kts | 21° |
| 2026-04-22 02:35 | -41.37202 | 147.30978 | 31681 ft | 456 kts | 22° |
| 2026-04-22 02:35 | -41.34283 | 147.32642 | 31968 ft | 456 kts | 21° |
| 2026-04-22 02:35 | -41.31366 | 147.34295 | 32214 ft | 457 kts | 21° |
| 2026-04-22 02:36 | -41.28441 | 147.35956 | 32522 ft | 456 kts | 21° |
| 2026-04-22 02:36 | -41.25522 | 147.37605 | 32850 ft | 455 kts | 21° |
| 2026-04-22 02:36 | -41.22608 | 147.39243 | 33052 ft | 457 kts | 21° |
| 2026-04-22 02:36 | -41.19669 | 147.40888 | 33264 ft | 458 kts | 21° |
| 2026-04-22 02:37 | -41.16740 | 147.42525 | 33583 ft | 457 kts | 21° |
| 2026-04-22 02:37 | -41.13813 | 147.44161 | 33944 ft | 455 kts | 21° |
| 2026-04-22 02:37 | -41.10894 | 147.45793 | 34237 ft | 455 kts | 21° |
| 2026-04-22 02:37 | -41.07983 | 147.47418 | 34449 ft | 455 kts | 21° |
| 2026-04-22 02:38 | -41.05053 | 147.49054 | 34601 ft | 457 kts | 21° |
| 2026-04-22 02:38 | -41.02155 | 147.50669 | 34819 ft | 457 kts | 21° |
| 2026-04-22 02:38 | -40.99188 | 147.52323 | 35111 ft | 455 kts | 21° |
| 2026-04-22 02:38 | -40.96318 | 147.53920 | 35365 ft | 454 kts | 21° |
| 2026-04-22 02:39 | -40.93389 | 147.55549 | 35359 ft | 458 kts | 21° |
| 2026-04-22 02:39 | -40.87500 | 147.58819 | 35367 ft | 458 kts | 21° |
| 2026-04-22 02:40 | -40.81644 | 147.62065 | 35368 ft | 456 kts | 21° |
| 2026-04-22 02:40 | -40.75802 | 147.65299 | 35367 ft | 454 kts | 21° |
| 2026-04-22 02:41 | -40.69983 | 147.68510 | 35368 ft | 453 kts | 21° |
| 2026-04-22 02:41 | -40.64165 | 147.71717 | 35368 ft | 453 kts | 21° |
| 2026-04-22 02:42 | -40.58351 | 147.74914 | 35371 ft | 453 kts | 21° |
| 2026-04-22 02:42 | -40.52512 | 147.78117 | 35370 ft | 455 kts | 21° |
| 2026-04-22 02:43 | -40.46663 | 147.81322 | 35365 ft | 457 kts | 21° |
| 2026-04-22 02:43 | -40.40780 | 147.84540 | 35363 ft | 459 kts | 21° |
| 2026-04-22 02:44 | -40.34880 | 147.87761 | 35368 ft | 460 kts | 21° |
| 2026-04-22 02:44 | -40.28985 | 147.90975 | 35372 ft | 462 kts | 21° |
| 2026-04-22 02:45 | -40.23039 | 147.94213 | 35358 ft | 464 kts | 21° |
| 2026-04-22 02:45 | -40.17061 | 147.97456 | 35363 ft | 465 kts | 21° |
| 2026-04-22 02:46 | -40.11076 | 148.00697 | 35366 ft | 466 kts | 21° |
| 2026-04-22 02:46 | -40.04848 | 148.02931 | 35378 ft | 463 kts | 9° |
| 2026-04-22 02:47 | -39.98513 | 148.04497 | 35368 ft | 463 kts | 9° |
| 2026-04-22 02:47 | -39.92181 | 148.06072 | 35358 ft | 463 kts | 9° |
| 2026-04-22 02:48 | -39.85851 | 148.07693 | 35362 ft | 463 kts | 9° |
| 2026-04-22 02:48 | -39.79542 | 148.09328 | 35362 ft | 462 kts | 9° |
| 2026-04-22 02:49 | -39.73273 | 148.10962 | 35363 ft | 462 kts | 10° |
| 2026-04-22 02:49 | -39.66978 | 148.12594 | 35359 ft | 461 kts | 10° |
| 2026-04-22 02:50 | -39.60686 | 148.14220 | 35362 ft | 461 kts | 10° |
| 2026-04-22 02:50 | -39.54352 | 148.15852 | 35359 ft | 461 kts | 10° |
| 2026-04-22 02:51 | -39.48090 | 148.17465 | 35361 ft | 462 kts | 9° |
| 2026-04-22 02:51 | -39.41790 | 148.19084 | 35361 ft | 462 kts | 9° |
| 2026-04-22 02:52 | -39.35481 | 148.20707 | 35362 ft | 463 kts | 10° |
| 2026-04-22 02:52 | -39.29146 | 148.22329 | 35362 ft | 464 kts | 9° |
| 2026-04-22 02:53 | -39.22805 | 148.23946 | 35358 ft | 465 kts | 10° |
| 2026-04-22 02:53 | -39.16438 | 148.25571 | 35356 ft | 466 kts | 9° |
| 2026-04-22 02:54 | -39.10069 | 148.27193 | 35357 ft | 467 kts | 10° |
| 2026-04-22 02:54 | -39.03676 | 148.28819 | 35350 ft | 468 kts | 10° |
| 2026-04-22 02:55 | -38.97286 | 148.30440 | 35348 ft | 468 kts | 9° |
| 2026-04-22 02:55 | -38.90880 | 148.32063 | 35350 ft | 469 kts | 10° |
| 2026-04-22 02:56 | -38.84481 | 148.33681 | 35347 ft | 469 kts | 10° |
| 2026-04-22 02:56 | -38.78079 | 148.35296 | 35352 ft | 469 kts | 9° |
| 2026-04-22 02:57 | -38.71708 | 148.36901 | 35351 ft | 469 kts | 10° |
| 2026-04-22 02:57 | -38.65302 | 148.38512 | 35344 ft | 469 kts | 10° |
| 2026-04-22 02:58 | -38.58895 | 148.40121 | 35352 ft | 469 kts | 10° |
| 2026-04-22 02:58 | -38.52474 | 148.41730 | 35348 ft | 470 kts | 10° |
| 2026-04-22 02:59 | -38.46063 | 148.43334 | 35340 ft | 470 kts | 9° |
| 2026-04-22 02:59 | -38.39649 | 148.44937 | 35350 ft | 470 kts | 9° |
| 2026-04-22 03:00 | -38.33221 | 148.46542 | 35344 ft | 470 kts | 9° |
| 2026-04-22 03:00 | -38.26801 | 148.48143 | 35361 ft | 470 kts | 10° |
| 2026-04-22 03:01 | -38.20375 | 148.49743 | 35349 ft | 471 kts | 10° |
| 2026-04-22 03:01 | -38.13933 | 148.51341 | 35344 ft | 471 kts | 10° |
| 2026-04-22 03:02 | -38.07487 | 148.52938 | 35341 ft | 472 kts | 9° |
| 2026-04-22 03:02 | -38.01047 | 148.54532 | 35344 ft | 472 kts | 9° |
| 2026-04-22 03:03 | -37.94591 | 148.56127 | 35342 ft | 472 kts | 9° |
| 2026-04-22 03:03 | -37.88140 | 148.57718 | 35333 ft | 473 kts | 9° |
| 2026-04-22 03:04 | -37.81716 | 148.59299 | 35342 ft | 473 kts | 9° |
| 2026-04-22 03:04 | -37.75209 | 148.60897 | 35336 ft | 474 kts | 9° |
| 2026-04-22 03:05 | -37.68770 | 148.62477 | 35334 ft | 474 kts | 9° |
| 2026-04-22 03:05 | -37.62281 | 148.64065 | 35336 ft | 475 kts | 9° |
| 2026-04-22 03:06 | -37.55795 | 148.65650 | 35334 ft | 475 kts | 9° |
| 2026-04-22 03:06 | -37.50395 | 148.66968 | 35330 ft | 475 kts | 9° |
| 2026-04-22 03:07 | -37.43890 | 148.68553 | 35335 ft | 476 kts | 9° |
| 2026-04-22 03:07 | -37.37388 | 148.70134 | 35333 ft | 476 kts | 9° |
| 2026-04-22 03:08 | -37.30882 | 148.71713 | 35331 ft | 477 kts | 9° |
| 2026-04-22 03:08 | -37.24372 | 148.73290 | 35338 ft | 477 kts | 9° |
| 2026-04-22 03:09 | -37.17847 | 148.74869 | 35336 ft | 477 kts | 9° |
| 2026-04-22 03:09 | -37.11327 | 148.76444 | 35343 ft | 478 kts | 9° |
| 2026-04-22 03:10 | -37.04787 | 148.78020 | 35336 ft | 478 kts | 9° |
| 2026-04-22 03:10 | -36.98250 | 148.79592 | 35347 ft | 479 kts | 9° |
| 2026-04-22 03:11 | -36.91708 | 148.81163 | 35339 ft | 479 kts | 9° |
| 2026-04-22 03:11 | -36.85163 | 148.82733 | 35347 ft | 479 kts | 9° |
| 2026-04-22 03:12 | -36.78600 | 148.84304 | 35345 ft | 480 kts | 9° |
| 2026-04-22 03:12 | -36.68747 | 148.86657 | 35344 ft | 481 kts | 9° |
| 2026-04-22 03:13 | -36.62171 | 148.88224 | 35339 ft | 482 kts | 9° |
| 2026-04-22 03:13 | -36.55576 | 148.89793 | 35330 ft | 482 kts | 9° |
| 2026-04-22 03:14 | -36.48975 | 148.91361 | 35345 ft | 483 kts | 9° |
| 2026-04-22 03:14 | -36.42419 | 148.92915 | 35340 ft | 483 kts | 9° |
| 2026-04-22 03:15 | -36.35816 | 148.94477 | 35349 ft | 483 kts | 9° |
| 2026-04-22 03:15 | -36.29185 | 148.96044 | 35346 ft | 484 kts | 9° |
| 2026-04-22 03:16 | -36.22577 | 148.97603 | 35341 ft | 484 kts | 9° |
| 2026-04-22 03:16 | -36.15981 | 148.99156 | 35337 ft | 483 kts | 8° |
| 2026-04-22 03:17 | -36.09362 | 149.00711 | 35344 ft | 484 kts | 8° |
| 2026-04-22 03:17 | -36.02752 | 149.02262 | 35343 ft | 484 kts | 8° |
| 2026-04-22 03:18 | -35.96128 | 149.03814 | 35344 ft | 484 kts | 8° |
| 2026-04-22 03:18 | -35.89507 | 149.05362 | 35345 ft | 485 kts | 9° |
| 2026-04-22 03:19 | -35.82879 | 149.06909 | 35346 ft | 485 kts | 9° |
| 2026-04-22 03:19 | -35.76250 | 149.08454 | 35329 ft | 485 kts | 8° |
| 2026-04-22 03:20 | -35.69607 | 149.09998 | 35343 ft | 485 kts | 8° |
| 2026-04-22 03:20 | -35.63006 | 149.11533 | 35349 ft | 486 kts | 8° |
| 2026-04-22 03:21 | -35.56364 | 149.13074 | 35354 ft | 486 kts | 8° |
| 2026-04-22 03:21 | -35.49665 | 149.14624 | 35362 ft | 487 kts | 8° |
| 2026-04-22 03:22 | -35.43000 | 149.16164 | 35369 ft | 488 kts | 8° |
| 2026-04-22 03:22 | -35.36360 | 149.17697 | 35368 ft | 488 kts | 8° |
| 2026-04-22 03:23 | -35.29680 | 149.19236 | 35378 ft | 489 kts | 8° |
| 2026-04-22 03:23 | -35.23050 | 149.21223 | 35380 ft | 491 kts | 14° |
| 2026-04-22 03:24 | -35.16502 | 149.23683 | 35360 ft | 492 kts | 15° |
| 2026-04-22 03:24 | -35.09947 | 149.26129 | 35335 ft | 492 kts | 14° |
| 2026-04-22 03:25 | -35.03388 | 149.28501 | 35343 ft | 492 kts | 14° |
| 2026-04-22 03:25 | -34.96822 | 149.30849 | 35338 ft | 492 kts | 14° |
| 2026-04-22 03:26 | -34.90244 | 149.33200 | 35335 ft | 492 kts | 14° |
| 2026-04-22 03:26 | -34.83678 | 149.35548 | 35333 ft | 492 kts | 14° |
| 2026-04-22 03:27 | -34.77167 | 149.38112 | 35315 ft | 495 kts | 26° |
| 2026-04-22 03:27 | -34.74303 | 149.40434 | 35346 ft | 496 kts | 41° |
| 2026-04-22 03:27 | -34.71968 | 149.43490 | 35326 ft | 495 kts | 56° |
| 2026-04-22 03:28 | -34.68702 | 149.50819 | 35336 ft | 493 kts | 65° |
| 2026-04-22 03:28 | -34.65580 | 149.58241 | 35334 ft | 494 kts | 64° |
| 2026-04-22 03:29 | -34.62379 | 149.65633 | 35350 ft | 495 kts | 64° |
| 2026-04-22 03:29 | -34.59151 | 149.72980 | 35335 ft | 496 kts | 64° |
| 2026-04-22 03:30 | -34.55899 | 149.80367 | 35342 ft | 497 kts | 64° |
| 2026-04-22 03:30 | -34.52639 | 149.87769 | 35341 ft | 497 kts | 64° |
| 2026-04-22 03:31 | -34.49376 | 149.95162 | 35344 ft | 498 kts | 64° |
| 2026-04-22 03:31 | -34.46106 | 150.02551 | 35343 ft | 498 kts | 64° |
| 2026-04-22 03:32 | -34.42827 | 150.09948 | 35340 ft | 498 kts | 64° |
| 2026-04-22 03:32 | -34.39551 | 150.17326 | 35360 ft | 497 kts | 64° |
| 2026-04-22 03:33 | -34.36290 | 150.24657 | 35338 ft | 497 kts | 64° |
| 2026-04-22 03:33 | -34.33011 | 150.32009 | 35325 ft | 496 kts | 64° |
| 2026-04-22 03:34 | -34.29728 | 150.39360 | 35334 ft | 495 kts | 64° |
| 2026-04-22 03:34 | -34.26455 | 150.46686 | 35351 ft | 495 kts | 64° |
| 2026-04-22 03:35 | -34.23206 | 150.54008 | 35346 ft | 494 kts | 64° |
| 2026-04-22 03:35 | -34.19957 | 150.61327 | 35323 ft | 494 kts | 64° |
| 2026-04-22 03:36 | -34.18324 | 150.65000 | 34905 ft | 500 kts | 64° |
| 2026-04-22 03:36 | -34.16696 | 150.68658 | 34306 ft | 500 kts | 64° |
| 2026-04-22 03:36 | -34.15046 | 150.72353 | 33584 ft | 500 kts | 64° |
| 2026-04-22 03:36 | -34.13395 | 150.76049 | 32910 ft | 499 kts | 65° |
| 2026-04-22 03:37 | -34.11746 | 150.79735 | 32202 ft | 499 kts | 65° |
| 2026-04-22 03:37 | -34.10096 | 150.83420 | 31472 ft | 499 kts | 65° |
| 2026-04-22 03:37 | -34.08449 | 150.87094 | 30912 ft | 496 kts | 65° |
| 2026-04-22 03:37 | -34.06819 | 150.90725 | 30424 ft | 490 kts | 65° |
| 2026-04-22 03:38 | -34.05201 | 150.94327 | 29830 ft | 485 kts | 65° |
| 2026-04-22 03:38 | -34.03604 | 150.97878 | 29302 ft | 479 kts | 65° |
| 2026-04-22 03:38 | -34.02024 | 151.01388 | 28802 ft | 473 kts | 65° |
| 2026-04-22 03:38 | -34.00465 | 151.04853 | 28311 ft | 467 kts | 65° |
| 2026-04-22 03:39 | -33.98924 | 151.08274 | 27785 ft | 463 kts | 66° |
| 2026-04-22 03:39 | -33.97394 | 151.11669 | 27273 ft | 458 kts | 66° |
| 2026-04-22 03:39 | -33.95876 | 151.15030 | 26770 ft | 454 kts | 66° |
| 2026-04-22 03:39 | -33.94327 | 151.18324 | 26275 ft | 452 kts | 62° |
| 2026-04-22 03:40 | -33.92433 | 151.21355 | 25747 ft | 453 kts | 54° |
| 2026-04-22 03:40 | -33.90429 | 151.24196 | 25230 ft | 451 kts | 53° |
| 2026-04-22 03:40 | -33.88382 | 151.27046 | 24724 ft | 447 kts | 53° |
| 2026-04-22 03:40 | -33.86351 | 151.29878 | 24213 ft | 445 kts | 53° |
| 2026-04-22 03:41 | -33.84347 | 151.32696 | 23655 ft | 442 kts | 54° |
| 2026-04-22 03:41 | -33.82363 | 151.35508 | 23121 ft | 439 kts | 54° |
| 2026-04-22 03:41 | -33.80401 | 151.38300 | 22590 ft | 434 kts | 54° |
| 2026-04-22 03:41 | -33.78464 | 151.41062 | 22085 ft | 430 kts | 54° |
| 2026-04-22 03:42 | -33.76550 | 151.43792 | 21618 ft | 424 kts | 54° |
| 2026-04-22 03:42 | -33.74656 | 151.46491 | 21115 ft | 420 kts | 54° |
| 2026-04-22 03:42 | -33.72776 | 151.49168 | 20632 ft | 416 kts | 54° |
| 2026-04-22 03:42 | -33.70919 | 151.51810 | 20158 ft | 412 kts | 54° |
| 2026-04-22 03:43 | -33.69098 | 151.54398 | 19692 ft | 408 kts | 54° |
| 2026-04-22 03:43 | -33.67267 | 151.56991 | 19224 ft | 405 kts | 53° |
| 2026-04-22 03:43 | -33.65211 | 151.59306 | 18738 ft | 409 kts | 40° |
| 2026-04-22 03:43 | -33.62748 | 151.61018 | 18294 ft | 409 kts | 27° |
| 2026-04-22 03:44 | -33.60052 | 151.62087 | 17838 ft | 408 kts | 17° |
| 2026-04-22 03:44 | -33.57307 | 151.62880 | 17361 ft | 404 kts | 16° |
| 2026-04-22 03:44 | -33.54583 | 151.63647 | 16897 ft | 400 kts | 16° |
| 2026-04-22 03:44 | -33.51888 | 151.64425 | 16428 ft | 396 kts | 16° |
| 2026-04-22 03:45 | -33.49225 | 151.65216 | 15965 ft | 392 kts | 16° |
| 2026-04-22 03:45 | -33.46587 | 151.66012 | 15512 ft | 389 kts | 16° |
| 2026-04-22 03:45 | -33.43976 | 151.66804 | 15063 ft | 385 kts | 17° |
| 2026-04-22 03:45 | -33.41405 | 151.67599 | 14785 ft | 377 kts | 17° |
| 2026-04-22 03:46 | -33.38877 | 151.68394 | 14370 ft | 374 kts | 17° |
| 2026-04-22 03:46 | -33.36374 | 151.69185 | 13925 ft | 371 kts | 17° |
| 2026-04-22 03:46 | -33.33892 | 151.69967 | 13454 ft | 368 kts | 17° |
| 2026-04-22 03:46 | -33.31427 | 151.70742 | 13004 ft | 365 kts | 17° |
| 2026-04-22 03:47 | -33.29004 | 151.71502 | 12490 ft | 364 kts | 17° |
| 2026-04-22 03:47 | -33.26531 | 151.72276 | 12027 ft | 362 kts | 17° |
| 2026-04-22 03:47 | -33.24139 | 151.73024 | 11588 ft | 359 kts | 17° |
| 2026-04-22 03:47 | -33.21704 | 151.73631 | 11177 ft | 358 kts | 4° |
| 2026-04-22 03:48 | -33.19279 | 151.73242 | 11043 ft | 349 kts | 342° |
| 2026-04-22 03:48 | -33.17097 | 151.72087 | 10910 ft | 338 kts | 334° |
| 2026-04-22 03:48 | -33.15027 | 151.70835 | 10752 ft | 329 kts | 333° |
| 2026-04-22 03:48 | -33.13019 | 151.69603 | 10610 ft | 320 kts | 333° |
| 2026-04-22 03:49 | -33.11062 | 151.68408 | 10469 ft | 312 kts | 334° |
| 2026-04-22 03:49 | -33.09154 | 151.67253 | 10338 ft | 304 kts | 334° |
| 2026-04-22 03:49 | -33.07280 | 151.66128 | 10091 ft | 300 kts | 334° |
| 2026-04-22 03:49 | -33.05420 | 151.65016 | 9805 ft | 298 kts | 334° |
| 2026-04-22 03:50 | -33.03570 | 151.63914 | 9501 ft | 296 kts | 334° |
| 2026-04-22 03:50 | -33.01726 | 151.62817 | 9096 ft | 298 kts | 334° |
| 2026-04-22 03:50 | -32.99854 | 151.61705 | 8673 ft | 301 kts | 334° |
| 2026-04-22 03:50 | -32.97976 | 151.60591 | 8344 ft | 301 kts | 334° |
| 2026-04-22 03:51 | -32.96133 | 151.59498 | 8044 ft | 300 kts | 334° |
| 2026-04-22 03:51 | -32.94272 | 151.58395 | 7742 ft | 298 kts | 334° |
| 2026-04-22 03:51 | -32.92419 | 151.57298 | 7455 ft | 296 kts | 334° |
| 2026-04-22 03:51 | -32.90567 | 151.56228 | 7156 ft | 295 kts | 339° |
| 2026-04-22 03:52 | -32.88593 | 151.55606 | 6876 ft | 292 kts | 351° |
| 2026-04-22 03:52 | -32.86587 | 151.55255 | 6577 ft | 290 kts | 353° |
| 2026-04-22 03:52 | -32.84590 | 151.54928 | 6121 ft | 290 kts | 353° |
| 2026-04-22 03:52 | -32.82583 | 151.54570 | 5595 ft | 292 kts | 352° |
| 2026-04-22 03:53 | -32.80565 | 151.54186 | 5040 ft | 295 kts | 350° |
| 2026-04-22 03:53 | -32.79227 | 151.53925 | 4691 ft | 292 kts | 351° |
| 2026-04-22 03:53 | -32.76610 | 151.53481 | 4046 ft | 276 kts | 2° |
| 2026-04-22 03:53 | -32.75386 | 151.53735 | 3742 ft | 266 kts | 21° |
| 2026-04-22 03:54 | -32.73822 | 151.54759 | 3303 ft | 251 kts | 41° |
| 2026-04-22 03:54 | -32.72512 | 151.56034 | 3116 ft | 232 kts | 43° |
| 2026-04-22 03:54 | -32.71500 | 151.57345 | 3059 ft | 200 kts | 70° |
| 2026-04-22 03:54 | -32.70998 | 151.58801 | 3101 ft | 189 kts | 71° |
| 2026-04-22 03:55 | -32.70458 | 151.60189 | 3083 ft | 182 kts | 70° |
| 2026-04-22 03:55 | -32.69936 | 151.61539 | 3078 ft | 178 kts | 72° |
| 2026-04-22 03:55 | -32.69453 | 151.62876 | 3085 ft | 176 kts | 73° |
| 2026-04-22 03:55 | -32.69006 | 151.64248 | 3107 ft | 181 kts | 76° |
| 2026-04-22 03:56 | -32.68570 | 151.65654 | 3099 ft | 186 kts | 76° |
| 2026-04-22 03:56 | -32.68317 | 151.67105 | 3089 ft | 174 kts | 104° |
| 2026-04-22 03:56 | -32.68891 | 151.68280 | 3021 ft | 166 kts | 136° |
| 2026-04-22 03:56 | -32.69650 | 151.69329 | 2780 ft | 164 kts | 134° |
| 2026-04-22 03:57 | -32.70352 | 151.70344 | 2568 ft | 155 kts | 134° |
| 2026-04-22 03:57 | -32.71037 | 151.71322 | 2371 ft | 152 kts | 134° |
| 2026-04-22 03:57 | -32.71711 | 151.72278 | 2167 ft | 151 kts | 133° |
| 2026-04-22 03:57 | -32.72391 | 151.73243 | 1980 ft | 153 kts | 134° |
| 2026-04-22 03:58 | -32.73066 | 151.74201 | 1784 ft | 147 kts | 134° |
| 2026-04-22 03:58 | -32.73710 | 151.75117 | 1587 ft | 140 kts | 134° |
| 2026-04-22 03:58 | -32.74319 | 151.75984 | 1377 ft | 134 kts | 134° |
| 2026-04-22 03:58 | -32.74919 | 151.76833 | 1209 ft | 138 kts | 132° |
| 2026-04-22 03:59 | -32.75544 | 151.77721 | 1030 ft | 141 kts | 132° |
| 2026-04-22 03:59 | -32.76166 | 151.78605 | 837 ft | 137 kts | 134° |
| 2026-04-22 03:59 | -32.76765 | 151.79459 | 660 ft | 132 kts | 134° |
| 2026-04-22 03:59 | -32.77342 | 151.80275 | 477 ft | 127 kts | 134° |
| 2026-04-22 04:00 | -32.77908 | 151.81078 | 320 ft | 129 kts | 133° |
| 2026-04-22 04:00 | -32.78456 | 151.81918 | 145 ft | 129 kts | 135° |
| 2026-04-22 04:00 | -32.79023 | 151.82712 | 49 ft | 116 kts | 135° |
| 2026-04-22 04:00 | -32.79479 | 151.83323 | 30 ft | 72 kts | 130° |
| 2026-04-22 04:01 | -32.79661 | 151.83581 | 29 ft | 20 kts | 129° |
| 2026-04-22 04:01 | -32.79792 | 151.83766 | 30 ft | 38 kts | 129° |
| 2026-04-22 04:01 | -32.79984 | 151.84036 | 29 ft | 42 kts | 130° |
| 2026-04-22 04:01 | -32.80150 | 151.84267 | 27 ft | 33 kts | 129° |
| 2026-04-22 04:02 | -32.80255 | 151.84415 | 27 ft | 18 kts | 141° |
| 2026-04-22 04:02 | -32.80374 | 151.84384 | 28 ft | 22 kts | 218° |
| 2026-04-22 04:02 | -32.80460 | 151.84270 | 26 ft | 17 kts | 262° |
| 2026-04-22 04:02 | -32.80398 | 151.84146 | 27 ft | 16 kts | 311° |
| 2026-04-22 04:03 | -32.80365 | 151.84061 | 27 ft | 7 kts | 261° |
| 2026-04-22 04:03 | -32.80369 | 151.84042 | 27 ft | 0 kts | 256° |